• Join FlightAware (Why Join?)
  • Login
  • US Flag 
10:31AM EDT


 

Airport Tracker/Info


-or-


 

Live Flight TrackerFlight Track Log ✈ C-GSEU ✈ 05-Nov-2013 ✈ CYQG - CYKZ

Flight Track Log - Related Links

Times and Time Zones

All times are in EST time to prevent confusion due to time zone crossing. See the C-GSEU flight status page for this flight to view local times or setup timezone preferences in your user account.

Time Position Orientation Groundspeed Altitude Reporting Facility
EST Latitude Longitude Course Direction KTS MPH feet Rate Location/Type
12:42PM 42.2769 -82.6081 189° South 118 136 3,400  Level Cleveland Center
12:42PM 42.2792 -82.5819 83° East 119 137 3,700 540 Climbing Cleveland Center
12:43PM 42.2778 -82.5550 94° East 118 136 4,000 360 Climbing Cleveland Center
12:44PM 42.2781 -82.5089 90° East 120 138 4,300 240 Climbing Cleveland Center
12:45PM 42.2797 -82.4586 87° East 130 150 4,600 300 Climbing Cleveland Center
12:46PM 42.2817 -82.4103 87° East 131 151 5,000 300 Climbing Cleveland Center
12:47PM 42.2836 -82.3617 87° East 131 151 5,300 240 Climbing Cleveland Center
12:48PM 42.2864 -82.3122 86° East 131 151 5,500 60 Climbing Cleveland Center
12:49PM 42.2900 -82.2553 85° East 128 147 5,500  Level Cleveland Center
12:50PM 42.2936 -82.2103 84° East 124 143 5,500  Level Cleveland Center
12:51PM 42.2986 -82.1628 82° East 125 144 5,500  Level Cleveland Center
12:52PM 42.3003 -82.1164 87° East 123 142 5,600  Climbing Cleveland Center
12:53PM 42.3031 -82.0711 85° East 121 139 5,600  Level Cleveland Center
12:54PM 42.3231 -82.0300 57° Northeast 129 148 5,600  Level Cleveland Center
12:55PM 42.3453 -81.9917 52° Northeast 129 148 5,600  Level Cleveland Center
12:56PM 42.3706 -81.9461 53° Northeast 128 147 5,600  Level Cleveland Center
12:57PM 42.3933 -81.9064 52° Northeast 131 151 5,600  Level Cleveland Center
12:58PM 42.4156 -81.8664 53° Northeast 132 152 5,600  Level Cleveland Center
12:59PM 42.4386 -81.8269 52° Northeast 133 153 5,600 -60 Level Cleveland Center
01:00PM 42.4592 -81.7914 52° Northeast 131 151 5,500 -120 Descending Cleveland Center
01:01PM 42.4836 -81.7475 53° Northeast 132 152 5,400  Descending Cleveland Center
01:02PM 42.5050 -81.7069 54° Northeast 132 152 5,500  Climbing Cleveland Center
01:03PM 42.5272 -81.6675 53° Northeast 131 151 5,500  Level Cleveland Center
01:04PM 42.5536 -81.6200 53° Northeast 134 154 5,500  Level Cleveland Center
01:06PM 42.5761 -81.5797 53° Northeast 133 153 5,500  Level Cleveland Center
01:07PM 42.5944 -81.5356 61° Northeast 133 153 5,500 -60 Level Cleveland Center
01:08PM 42.6108 -81.4894 64° Northeast 134 154 5,400  Descending Cleveland Center
01:09PM 42.6281 -81.4469 61° Northeast 132 152 5,500  Climbing Cleveland Center
01:10PM 42.6461 -81.4036 60° Northeast 131 151 5,500 -60 Level Cleveland Center
01:11PM 42.6633 -81.3589 62° Northeast 131 151 5,400 -60 Descending Cleveland Center
01:12PM 42.6817 -81.3128 62° Northeast 134 154 5,400  Level Cleveland Center
01:13PM 42.7036 -81.2614 60° Northeast 134 154 5,500  Climbing Cleveland Center
01:14PM 42.7244 -81.2186 56° Northeast 135 155 5,500  Level Cleveland Center
01:15PM 42.7447 -81.1750 58° Northeast 135 155 5,500  Level Cleveland Center
01:17PM 42.7833 -81.0667 64° Northeast 140 161 5,500  Level Toronto Center
01:18PM 42.8000 -81.0167 66° East 130 150 5,500  Level Toronto Center
01:19PM 42.8167 -80.9667 66° East 140 161 5,500  Level Toronto Center
01:20PM 42.8333 -80.9333 56° Northeast 130 150 5,500  Level Toronto Center
01:21PM 42.8500 -80.8833 66° East 130 150 5,500  Level Toronto Center
01:22PM 42.8667 -80.8333 66° East 130 150 5,500  Level Toronto Center
01:23PM 42.9000 -80.8000 36° Northeast 130 150 5,500  Level Toronto Center
01:24PM 42.9333 -80.7500 48° Northeast 130 150 5,500  Level Toronto Center
01:25PM 42.9500 -80.7000 66° East 130 150 5,500  Level Toronto Center
01:26PM 42.9667 -80.6500 65° Northeast 130 150 5,500  Level Toronto Center
01:28PM 43.0120 -80.6149 30° Northeast  Level FlightAware Approximate
01:35PM 43.2330 -80.3562 48° Northeast  Level FlightAware Approximate
01:36PM 43.2601 -80.3147 48° Northeast  Level FlightAware Approximate
01:37PM 43.2872 -80.2732 48° Northeast  Level FlightAware Approximate
01:38PM 43.3143 -80.2317 48° Northeast  Level FlightAware Approximate
01:39PM 43.3414 -80.1902 48° Northeast  Level FlightAware Approximate
01:40PM 43.3685 -80.1486 48° Northeast  Level FlightAware Approximate
01:41PM 43.3955 -80.1069 48° Northeast  Level FlightAware Approximate
01:42PM 43.4202 -80.0631 36° Northeast  Level FlightAware Approximate
01:43PM 43.4498 -80.0253 47° Northeast  Level FlightAware Approximate
01:44PM 43.4767 -79.9833 50° Northeast  Level FlightAware Approximate
01:45PM 43.5025 -79.9402 50° Northeast  Level FlightAware Approximate
01:46PM 43.5299 -79.8990 44° Northeast  Level FlightAware Approximate
01:47PM 43.5591 -79.8601 44° Northeast  Level FlightAware Approximate
01:48PM 43.5858 -79.8181 50° Northeast  Level FlightAware Approximate
01:49PM 43.6117 -79.7749 50° Northeast  Level FlightAware Approximate
01:50PM 43.6376 -79.7318 50° Northeast  Level FlightAware Approximate
01:51PM 43.6636 -79.6886 50° Northeast  Level FlightAware Approximate
01:52PM 43.6895 -79.6454 50° Northeast  Level FlightAware Approximate
01:53PM 43.7154 -79.6022 50° Northeast  Level FlightAware Approximate
01:54PM 43.7428 -79.5608 47° Northeast  Level FlightAware Approximate
01:55PM 43.7671 -79.5159 55° Northeast  Level FlightAware Approximate
01:56PM 43.7902 -79.4697 55° Northeast  Level FlightAware Approximate
01:57PM 43.8133 -79.4235 55° Northeast  Level FlightAware Approximate
01:58PM 43.8413 -79.3840 55° Northeast  Level FlightAware Approximate
01:59PM 43.8500 -79.3667 55° Northeast  Level FlightAware Approximate
02:00PM 43.8622 -79.3700 55° Northeast  Level Estimated
02:01PM 43.8622 -79.3700 55° Northeast  Level Estimated
02:02PM 43.8622 -79.3700 55° Northeast  Level Estimated
02:03PM 43.8622 -79.3700 55° Northeast  Level Estimated
02:04PM 43.8622 -79.3700 55° Northeast  Level Estimated
02:05PM 43.8622 -79.3700 55° Northeast  Level Estimated
02:06PM 43.8622 -79.3700 55° Northeast  Level Estimated
02:07PM 43.8622 -79.3700 55° Northeast  Level Estimated
02:08PM 43.8622 -79.3700 55° Northeast  Level Estimated
02:09PM 43.8622 -79.3700 55° Northeast  Level Estimated
02:10PM 43.8622 -79.3700 55° Northeast  Level Estimated
02:11PM 43.8622 -79.3700 55° Northeast  Level Estimated
02:12PM 43.8622 -79.3700 55° Northeast  Level Estimated
02:13PM 43.8622 -79.3700 55° Northeast  Level Estimated
02:14PM 43.8622 -79.3700 55° Northeast  Level Estimated
02:15PM 43.8622 -79.3700 55° Northeast  Level Estimated
02:16PM 43.8622 -79.3700 55° Northeast  Level Estimated
02:17PM 43.8622 -79.3700 55° Northeast  Level Estimated
02:18PM 43.8622 -79.3700 55° Northeast  Level Estimated
02:19PM 43.8622 -79.3700 55° Northeast  Level Estimated